createdAt,value
2023-05-14T00:00:04.196Z,10.11
2023-05-14T00:02:30.790Z,10.06
2023-05-14T00:04:57.304Z,10.04
2023-05-14T00:07:23.876Z,10.01
2023-05-14T00:09:50.380Z,9.95
2023-05-14T00:12:16.847Z,9.89
2023-05-14T00:14:43.372Z,9.89
2023-05-14T00:17:09.914Z,9.90
2023-05-14T00:19:36.442Z,9.91
2023-05-14T00:22:02.974Z,9.91
2023-05-14T00:24:29.497Z,9.89
2023-05-14T00:26:56.090Z,9.90
2023-05-14T00:29:22.578Z,9.92
2023-05-14T00:31:49.231Z,9.92
2023-05-14T00:34:15.842Z,9.94
2023-05-14T00:36:42.481Z,9.97
2023-05-14T00:39:09.054Z,9.96
2023-05-14T00:41:35.756Z,9.95
2023-05-14T00:44:02.414Z,9.97
2023-05-14T00:46:29.096Z,9.94
2023-05-14T00:48:56.228Z,9.91
2023-05-14T00:51:23.328Z,9.89
2023-05-14T00:53:50.536Z,9.86
2023-05-14T00:56:17.773Z,9.85
2023-05-14T00:58:44.462Z,9.79
2023-05-14T01:01:12.232Z,9.74
2023-05-14T01:03:39.030Z,9.66
2023-05-14T01:06:11.387Z,9.67
2023-05-14T01:08:46.819Z,9.63
2023-05-14T01:11:48.770Z,9.64
2023-05-14T01:14:28.765Z,9.55
2023-05-14T01:16:59.031Z,9.50
2023-05-14T01:19:40.914Z,9.48
2023-05-14T01:22:07.550Z,9.45
2023-05-14T01:24:34.124Z,9.40
2023-05-14T01:27:07.508Z,9.32
2023-05-14T01:29:37.558Z,9.31
2023-05-14T01:32:07.814Z,9.30
2023-05-14T01:34:36.292Z,9.22
2023-05-14T01:37:04.850Z,9.24
2023-05-14T01:39:32.566Z,9.20
2023-05-14T01:42:00.832Z,9.18
2023-05-14T01:44:27.414Z,9.24
2023-05-14T01:46:53.933Z,9.23
2023-05-14T01:49:20.657Z,9.23
2023-05-14T01:51:47.183Z,9.30
2023-05-14T01:54:13.720Z,9.32
2023-05-14T01:56:40.236Z,9.32
2023-05-14T01:59:07.019Z,9.35
2023-05-14T02:01:34.108Z,9.38
2023-05-14T02:04:01.188Z,9.43
2023-05-14T02:06:27.839Z,9.44
2023-05-14T02:08:54.365Z,9.48
2023-05-14T02:11:21.886Z,9.51
2023-05-14T02:13:48.438Z,9.55
2023-05-14T02:16:15.203Z,9.56
2023-05-14T02:18:41.783Z,9.59
2023-05-14T02:21:08.373Z,9.60
2023-05-14T02:23:41.628Z,9.62
2023-05-14T02:26:12.626Z,9.64
2023-05-14T02:28:39.221Z,9.64
2023-05-14T02:31:05.822Z,9.66
2023-05-14T02:33:32.706Z,9.68
2023-05-14T02:35:59.319Z,9.71
2023-05-14T02:38:26.565Z,9.70
2023-05-14T02:40:53.155Z,9.71
2023-05-14T02:43:19.764Z,9.68
2023-05-14T02:45:46.349Z,9.68
2023-05-14T02:48:13.131Z,9.66
2023-05-14T02:50:39.768Z,9.63
2023-05-14T02:53:06.325Z,9.61
2023-05-14T02:55:32.789Z,9.57
2023-05-14T02:57:59.323Z,9.49
2023-05-14T03:00:26.000Z,9.44
2023-05-14T03:02:53.448Z,9.38
2023-05-14T03:05:20.742Z,9.35
2023-05-14T03:07:47.403Z,9.31
2023-05-14T03:10:13.918Z,9.25
2023-05-14T03:12:40.535Z,9.25
2023-05-14T03:15:07.512Z,9.21
2023-05-14T03:17:34.132Z,9.14
2023-05-14T03:20:00.782Z,9.08
2023-05-14T03:22:27.394Z,9.02
2023-05-14T03:24:53.892Z,9.03
2023-05-14T03:27:20.948Z,8.96
2023-05-14T03:29:47.452Z,8.94
2023-05-14T03:32:14.559Z,8.93
2023-05-14T03:34:41.635Z,8.89
2023-05-14T03:37:08.126Z,8.82
2023-05-14T03:39:34.866Z,8.80
2023-05-14T03:42:01.580Z,8.79
2023-05-14T03:44:28.164Z,8.79
2023-05-14T03:46:54.770Z,8.82
2023-05-14T03:49:21.635Z,8.83
2023-05-14T03:51:48.185Z,8.83
2023-05-14T03:54:14.865Z,8.84
2023-05-14T03:56:41.398Z,8.87
2023-05-14T03:59:07.876Z,8.88
2023-05-14T04:01:34.471Z,8.91
2023-05-14T04:04:01.164Z,8.92
2023-05-14T04:06:27.827Z,8.95
2023-05-14T04:08:54.321Z,8.97
2023-05-14T04:11:21.620Z,8.99
2023-05-14T04:13:48.099Z,9.01
2023-05-14T04:16:14.621Z,9.04
2023-05-14T04:18:41.430Z,9.06
2023-05-14T04:21:08.022Z,9.07
2023-05-14T04:23:34.686Z,9.08
2023-05-14T04:26:01.222Z,9.07
2023-05-14T04:28:27.765Z,9.08
2023-05-14T04:30:54.378Z,9.07
2023-05-14T04:33:21.099Z,9.07
2023-05-14T04:35:47.600Z,9.05
2023-05-14T04:38:14.525Z,9.10
2023-05-14T04:40:44.245Z,9.08
2023-05-14T04:43:10.915Z,9.08
2023-05-14T04:45:37.501Z,9.10
2023-05-14T04:48:04.635Z,9.11
2023-05-14T04:50:31.436Z,9.12
2023-05-14T04:52:57.987Z,9.15
2023-05-14T04:55:24.586Z,9.13
2023-05-14T04:57:51.246Z,9.17
2023-05-14T05:00:18.109Z,9.21
2023-05-14T05:02:45.048Z,9.22
2023-05-14T05:05:11.626Z,9.25
2023-05-14T05:07:38.176Z,9.27
2023-05-14T05:10:05.032Z,9.29
2023-05-14T05:12:31.641Z,9.32
2023-05-14T05:14:58.228Z,9.35
2023-05-14T05:17:25.533Z,9.38
2023-05-14T05:19:52.744Z,9.42
2023-05-14T05:22:20.216Z,9.45
2023-05-14T05:24:49.131Z,9.47
2023-05-14T05:27:16.641Z,9.50
2023-05-14T05:29:44.499Z,9.54
2023-05-14T05:32:11.228Z,9.57
2023-05-14T05:34:37.807Z,9.59
2023-05-14T05:37:06.053Z,9.62
2023-05-14T05:39:34.961Z,9.64
2023-05-14T05:42:02.753Z,9.68
2023-05-14T05:44:29.433Z,9.71
2023-05-14T05:46:57.523Z,9.74
2023-05-14T05:49:24.188Z,9.76
2023-05-14T05:51:50.838Z,9.80
2023-05-14T05:54:17.405Z,9.83
2023-05-14T05:56:43.932Z,9.87
2023-05-14T05:59:10.460Z,9.89
2023-05-14T06:01:37.496Z,9.93
2023-05-14T06:04:06.396Z,9.97
2023-05-14T06:06:33.100Z,10.00
2023-05-14T06:08:59.735Z,10.05
2023-05-14T06:11:26.727Z,10.08
2023-05-14T06:13:53.487Z,10.12
2023-05-14T06:16:20.142Z,10.15
2023-05-14T06:18:47.132Z,10.18
2023-05-14T06:21:13.690Z,10.22
2023-05-14T06:23:41.131Z,10.25
2023-05-14T06:26:07.660Z,10.30
2023-05-14T06:28:34.290Z,10.33
2023-05-14T06:31:00.958Z,10.37
2023-05-14T06:33:31.128Z,10.42
2023-05-14T06:36:04.280Z,10.46
2023-05-14T06:38:30.929Z,10.51
2023-05-14T06:40:57.459Z,10.53
2023-05-14T06:43:24.009Z,10.59
2023-05-14T06:45:51.122Z,10.63
2023-05-14T06:48:18.985Z,10.67
2023-05-14T06:50:49.196Z,10.71
2023-05-14T06:53:16.107Z,10.75
2023-05-14T06:55:42.650Z,10.81
2023-05-14T06:58:09.505Z,10.85
2023-05-14T07:00:36.015Z,10.91
2023-05-14T07:03:02.568Z,10.97
2023-05-14T07:05:29.364Z,11.04
2023-05-14T07:07:55.875Z,11.09
2023-05-14T07:10:22.913Z,11.14
2023-05-14T07:12:49.656Z,11.23
2023-05-14T07:15:16.263Z,11.28
2023-05-14T07:17:42.790Z,11.35
2023-05-14T07:20:09.994Z,11.42
2023-05-14T07:22:36.526Z,11.49
2023-05-14T07:25:03.229Z,11.54
2023-05-14T07:27:29.824Z,11.62
2023-05-14T07:29:56.312Z,11.70
2023-05-14T07:32:24.983Z,11.78
2023-05-14T07:34:51.789Z,11.87
2023-05-14T07:37:18.721Z,11.96
2023-05-14T07:39:45.297Z,12.06
2023-05-14T07:42:15.278Z,12.16
2023-05-14T07:44:48.508Z,12.28
2023-05-14T07:47:15.133Z,12.39
2023-05-14T07:49:41.980Z,12.49
2023-05-14T07:52:08.475Z,12.59
2023-05-14T07:54:35.791Z,12.66
2023-05-14T07:57:02.305Z,12.73
2023-05-14T07:59:28.800Z,12.81
2023-05-14T08:01:55.339Z,12.90
2023-05-14T08:04:23.376Z,12.98
2023-05-14T08:06:49.960Z,13.05
2023-05-14T08:09:16.621Z,13.13
2023-05-14T08:11:43.734Z,13.24
2023-05-14T08:14:10.231Z,13.34
2023-05-14T08:16:36.828Z,13.45
2023-05-14T08:19:05.286Z,13.58
2023-05-14T08:21:32.814Z,13.71
2023-05-14T08:23:59.458Z,13.86
2023-05-14T08:26:26.051Z,13.98
2023-05-14T08:28:53.917Z,14.11
2023-05-14T08:31:20.527Z,14.25
2023-05-14T08:33:47.069Z,14.39
2023-05-14T08:36:13.745Z,14.56
2023-05-14T08:38:40.287Z,14.75
2023-05-14T08:41:08.442Z,14.93
2023-05-14T08:44:12.314Z,15.16
2023-05-14T08:46:39.806Z,15.36
2023-05-14T08:49:27.259Z,15.55
2023-05-14T08:51:54.092Z,15.76
2023-05-14T08:54:23.694Z,15.97
2023-05-14T08:56:52.121Z,16.15
2023-05-14T08:59:19.235Z,16.34
2023-05-14T09:01:48.292Z,16.51
2023-05-14T09:04:21.248Z,16.66
2023-05-14T09:06:55.482Z,16.84
2023-05-14T09:09:23.154Z,17.02
2023-05-14T09:11:51.372Z,17.20
2023-05-14T09:14:18.277Z,17.40
2023-05-14T09:16:49.096Z,17.60
2023-05-14T09:19:18.904Z,17.78
2023-05-14T09:21:46.392Z,17.98
2023-05-14T09:24:24.143Z,18.18
2023-05-14T09:26:55.067Z,18.37
2023-05-14T09:29:21.978Z,18.56
2023-05-14T09:31:51.570Z,18.76
2023-05-14T09:34:24.399Z,18.98
2023-05-14T09:36:54.441Z,19.21
2023-05-14T09:39:22.359Z,19.43
2023-05-14T09:41:49.344Z,19.64
2023-05-14T09:44:15.900Z,19.85
2023-05-14T09:46:42.390Z,20.05
2023-05-14T09:49:08.875Z,20.23
2023-05-14T09:51:37.432Z,20.40
2023-05-14T09:54:07.488Z,20.51
2023-05-14T09:56:35.063Z,20.21
2023-05-14T09:59:02.365Z,20.11
2023-05-14T10:01:30.659Z,20.12
2023-05-14T10:03:57.528Z,20.11
2023-05-14T10:06:27.532Z,20.14
2023-05-14T10:08:59.915Z,20.25
2023-05-14T10:11:30.967Z,20.23
2023-05-14T10:14:08.688Z,20.30
2023-05-14T10:16:40.494Z,20.25
2023-05-14T10:19:11.778Z,20.33
2023-05-14T10:21:41.003Z,20.42
2023-05-14T10:24:09.573Z,20.56
2023-05-14T10:26:39.203Z,20.59
2023-05-14T10:29:07.227Z,20.62
2023-05-14T10:31:54.216Z,20.82
2023-05-14T10:34:38.905Z,20.89
2023-05-14T10:37:08.354Z,20.97
2023-05-14T10:39:51.403Z,20.97
2023-05-14T10:42:22.910Z,20.95
2023-05-14T10:44:56.062Z,21.05
2023-05-14T10:47:22.734Z,21.12
2023-05-14T10:49:49.620Z,21.10
2023-05-14T10:52:20.778Z,21.17
2023-05-14T10:55:03.657Z,21.10
2023-05-14T10:57:32.344Z,21.05
2023-05-14T11:00:01.267Z,21.01
2023-05-14T11:02:29.450Z,21.06
2023-05-14T11:05:00.688Z,21.02
2023-05-14T11:07:30.029Z,21.03
2023-05-14T11:10:03.502Z,20.97
2023-05-14T11:12:30.449Z,20.94
2023-05-14T11:14:59.233Z,21.00
2023-05-14T11:17:30.436Z,20.91
2023-05-14T11:19:57.825Z,20.86
2023-05-14T11:22:24.982Z,20.78
2023-05-14T11:24:51.701Z,20.77
2023-05-14T11:27:19.469Z,20.76
2023-05-14T11:29:47.262Z,20.70
2023-05-14T11:32:14.694Z,20.70
2023-05-14T11:34:42.961Z,20.73
2023-05-14T11:37:10.271Z,20.76
2023-05-14T11:39:37.687Z,20.90
2023-05-14T11:42:12.583Z,21.02
2023-05-14T11:44:39.550Z,21.13
2023-05-14T11:47:06.699Z,21.08
2023-05-14T11:49:36.012Z,21.09
2023-05-14T11:52:04.893Z,21.28
2023-05-14T11:54:33.293Z,21.41
2023-05-14T11:57:01.892Z,21.54
2023-05-14T11:59:31.390Z,21.56
2023-05-14T12:01:58.683Z,21.64
2023-05-14T12:04:25.736Z,21.62
2023-05-14T12:06:53.460Z,21.77
2023-05-14T12:09:21.512Z,21.96
2023-05-14T12:11:50.663Z,21.99
2023-05-14T12:14:19.136Z,22.10
2023-05-14T12:16:46.815Z,22.10
2023-05-14T12:19:18.671Z,22.21
2023-05-14T12:21:47.381Z,22.20
2023-05-14T12:24:19.846Z,22.36
2023-05-14T12:26:48.184Z,22.34
2023-05-14T12:29:16.047Z,22.54
2023-05-14T12:31:51.601Z,22.71
2023-05-14T12:34:18.228Z,22.88
2023-05-14T12:36:44.815Z,23.04
2023-05-14T12:39:12.294Z,23.10
2023-05-14T12:41:38.874Z,23.30
2023-05-14T12:44:05.600Z,23.44
2023-05-14T12:46:33.099Z,23.52
2023-05-14T12:48:59.727Z,23.61
2023-05-14T12:51:26.292Z,23.65
2023-05-14T12:53:54.212Z,23.77
2023-05-14T12:56:21.406Z,23.73
2023-05-14T12:58:48.239Z,23.96
2023-05-14T13:01:14.876Z,23.97
2023-05-14T13:03:41.548Z,24.06
2023-05-14T13:06:08.127Z,24.29
2023-05-14T13:08:35.361Z,24.42
2023-05-14T13:11:01.900Z,24.42
2023-05-14T13:13:28.485Z,24.50
2023-05-14T13:15:55.623Z,24.59
2023-05-14T13:18:22.166Z,24.63
2023-05-14T13:20:48.776Z,24.62
2023-05-14T13:23:15.659Z,24.59
2023-05-14T13:25:42.236Z,24.63
2023-05-14T13:28:09.302Z,24.40
2023-05-14T13:30:36.034Z,24.28
2023-05-14T13:33:02.730Z,24.19
2023-05-14T13:35:29.374Z,24.23
2023-05-14T13:37:56.000Z,24.25
2023-05-14T13:40:22.676Z,24.27
2023-05-14T13:42:49.280Z,24.36
2023-05-14T13:45:15.812Z,24.44
2023-05-14T13:47:42.531Z,24.51
2023-05-14T13:50:09.258Z,24.64
2023-05-14T13:52:36.013Z,24.67
2023-05-14T13:55:02.533Z,24.61
2023-05-14T13:57:29.049Z,24.50
2023-05-14T13:59:56.095Z,24.68
2023-05-14T14:02:22.704Z,24.93
2023-05-14T14:04:49.510Z,25.11
2023-05-14T14:07:16.129Z,25.24
2023-05-14T14:09:42.632Z,25.26
2023-05-14T14:12:09.615Z,25.37
2023-05-14T14:14:36.631Z,25.50
2023-05-14T14:17:03.156Z,25.57
2023-05-14T14:19:30.039Z,25.54
2023-05-14T14:21:56.627Z,25.58
2023-05-14T14:24:23.148Z,25.54
2023-05-14T14:26:49.675Z,25.52
2023-05-14T14:29:16.271Z,25.45
2023-05-14T14:31:43.629Z,25.54
2023-05-14T14:34:10.224Z,25.61
2023-05-14T14:36:36.752Z,25.63
2023-05-14T14:39:03.625Z,25.51
2023-05-14T14:41:30.237Z,25.60
2023-05-14T14:43:56.916Z,25.62
2023-05-14T14:46:23.451Z,25.62
2023-05-14T14:48:50.026Z,25.56
2023-05-14T14:51:16.598Z,25.44
2023-05-14T14:53:43.107Z,25.34
2023-05-14T14:56:09.641Z,25.21
2023-05-14T14:58:36.690Z,25.06
2023-05-14T15:01:03.233Z,25.07
2023-05-14T15:03:29.970Z,25.31
2023-05-14T15:05:56.859Z,25.51
2023-05-14T15:08:27.434Z,25.65
2023-05-14T15:10:55.553Z,25.74
2023-05-14T15:13:22.114Z,25.81
2023-05-14T15:15:50.815Z,25.84
2023-05-14T15:18:17.352Z,25.87
2023-05-14T15:20:44.420Z,25.86
2023-05-14T15:23:11.698Z,25.83
2023-05-14T15:25:38.379Z,25.77
2023-05-14T15:28:07.358Z,25.72
2023-05-14T15:30:34.009Z,25.65
2023-05-14T15:33:00.909Z,25.58
2023-05-14T15:35:27.547Z,25.53
2023-05-14T15:37:56.286Z,25.49
2023-05-14T15:40:23.383Z,25.45
2023-05-14T15:42:50.390Z,25.41
2023-05-14T15:45:16.885Z,25.37
2023-05-14T15:47:45.067Z,25.37
2023-05-14T15:50:12.135Z,25.32
2023-05-14T15:52:39.366Z,25.28
2023-05-14T15:55:06.433Z,25.27
2023-05-14T15:57:34.404Z,25.25
2023-05-14T16:00:01.022Z,25.24
2023-05-14T16:02:30.345Z,25.22
2023-05-14T16:04:57.085Z,25.21
2023-05-14T16:07:23.600Z,25.22
2023-05-14T16:09:50.147Z,25.20
2023-05-14T16:12:16.705Z,25.18
2023-05-14T16:14:45.212Z,25.16
2023-05-14T16:17:11.842Z,25.13
2023-05-14T16:19:39.209Z,25.10
2023-05-14T16:22:05.933Z,25.06
2023-05-14T16:24:32.393Z,25.00
2023-05-14T16:27:00.047Z,24.96
2023-05-14T16:29:26.638Z,24.91
2023-05-14T16:31:53.220Z,24.83
2023-05-14T16:34:19.783Z,24.76
2023-05-14T16:36:46.310Z,24.69
2023-05-14T16:39:12.887Z,24.63
2023-05-14T16:41:39.443Z,24.56
2023-05-14T16:44:05.988Z,24.46
2023-05-14T16:46:33.065Z,24.41
2023-05-14T16:48:59.687Z,24.34
2023-05-14T16:51:26.196Z,24.25
2023-05-14T16:53:54.698Z,24.21
2023-05-14T16:56:22.486Z,24.19
2023-05-14T16:58:49.200Z,24.19
2023-05-14T17:01:15.813Z,24.17
2023-05-14T17:03:43.555Z,24.17
2023-05-14T17:06:10.184Z,24.17
2023-05-14T17:08:36.806Z,24.14
2023-05-14T17:11:05.900Z,24.11
2023-05-14T17:13:33.451Z,24.10
2023-05-14T17:16:01.072Z,24.06
2023-05-14T17:18:28.606Z,24.04
2023-05-14T17:20:55.301Z,23.99
2023-05-14T17:23:21.858Z,23.92
2023-05-14T17:25:48.448Z,23.84
2023-05-14T17:28:15.023Z,23.75
2023-05-14T17:30:41.752Z,23.69
2023-05-14T17:33:08.410Z,23.63
2023-05-14T17:35:36.349Z,23.59
2023-05-14T17:38:03.608Z,23.54
2023-05-14T17:40:30.186Z,23.51
2023-05-14T17:42:56.808Z,23.43
2023-05-14T17:45:23.618Z,23.36
2023-05-14T17:47:51.447Z,23.20
2023-05-14T17:50:18.873Z,23.05
2023-05-14T17:52:46.145Z,22.90
2023-05-14T17:55:12.793Z,22.78
2023-05-14T17:57:39.483Z,22.69
2023-05-14T18:00:06.726Z,22.61
2023-05-14T18:02:33.377Z,22.48
2023-05-14T18:05:00.390Z,22.40
2023-05-14T18:07:26.915Z,22.33
2023-05-14T18:09:53.424Z,22.22
2023-05-14T18:12:19.905Z,22.14
2023-05-14T18:14:46.506Z,22.03
2023-05-14T18:17:13.220Z,21.92
2023-05-14T18:19:41.016Z,21.83
2023-05-14T18:22:07.527Z,21.75
2023-05-14T18:24:34.238Z,21.61
2023-05-14T18:27:00.957Z,21.50
2023-05-14T18:29:27.437Z,21.44
2023-05-14T18:31:53.975Z,21.32
2023-05-14T18:34:20.568Z,21.20
2023-05-14T18:36:47.399Z,21.09
2023-05-14T18:39:13.986Z,21.02
2023-05-14T18:41:40.532Z,20.90
2023-05-14T18:44:07.028Z,20.85
2023-05-14T18:46:33.740Z,20.79
2023-05-14T18:49:00.283Z,20.68
2023-05-14T18:51:26.819Z,20.61
2023-05-14T18:53:53.352Z,20.56
2023-05-14T18:56:20.069Z,20.47
2023-05-14T18:58:46.576Z,20.41
2023-05-14T19:01:13.140Z,20.34
2023-05-14T19:03:42.044Z,20.23
2023-05-14T19:06:08.700Z,20.15
2023-05-14T19:08:35.589Z,20.08
2023-05-14T19:11:02.351Z,19.94
2023-05-14T19:13:30.203Z,19.84
2023-05-14T19:15:56.889Z,19.71
2023-05-14T19:18:23.475Z,19.56
2023-05-14T19:20:50.145Z,19.44
2023-05-14T19:23:16.672Z,19.24
2023-05-14T19:25:43.254Z,19.14
2023-05-14T19:28:09.881Z,19.03
2023-05-14T19:30:36.572Z,18.92
2023-05-14T19:33:03.409Z,18.89
2023-05-14T19:35:29.957Z,18.83
2023-05-14T19:37:56.511Z,18.72
2023-05-14T19:40:23.043Z,18.66
2023-05-14T19:42:49.617Z,18.60
2023-05-14T19:45:16.276Z,18.52
2023-05-14T19:47:43.013Z,18.46
2023-05-14T19:50:09.920Z,18.41
2023-05-14T19:52:36.478Z,18.33
2023-05-14T19:55:03.120Z,18.30
2023-05-14T19:57:29.670Z,18.26
2023-05-14T19:59:56.176Z,18.19
2023-05-14T20:02:22.721Z,18.13
2023-05-14T20:04:49.522Z,18.09
2023-05-14T20:07:16.133Z,18.08
2023-05-14T20:09:42.912Z,18.00
2023-05-14T20:12:09.631Z,17.94
2023-05-14T20:14:36.595Z,17.86
2023-05-14T20:17:03.355Z,17.79
2023-05-14T20:19:29.957Z,17.73
2023-05-14T20:21:56.786Z,17.69
2023-05-14T20:24:23.282Z,17.64
2023-05-14T20:26:50.169Z,17.56
2023-05-14T20:29:16.730Z,17.48
2023-05-14T20:31:43.273Z,17.43
2023-05-14T20:34:09.762Z,17.38
2023-05-14T20:36:36.371Z,17.36
2023-05-14T20:39:05.023Z,17.36
2023-05-14T20:41:32.308Z,17.26
2023-05-14T20:43:58.856Z,17.26
2023-05-14T20:46:25.834Z,17.17
2023-05-14T20:48:55.401Z,17.15
2023-05-14T20:51:22.094Z,17.10
2023-05-14T20:53:48.618Z,17.04
2023-05-14T20:56:15.124Z,16.95
2023-05-14T20:58:41.671Z,16.91
2023-05-14T21:01:09.432Z,16.88
2023-05-14T21:03:36.768Z,16.81
2023-05-14T21:06:03.503Z,16.71
2023-05-14T21:08:32.899Z,16.67
2023-05-14T21:10:59.533Z,16.60
2023-05-14T21:13:26.112Z,16.57
2023-05-14T21:15:52.757Z,16.49
2023-05-14T21:18:19.256Z,16.46
2023-05-14T21:20:45.902Z,16.44
2023-05-14T21:23:12.831Z,16.38
2023-05-14T21:25:39.391Z,16.37
2023-05-14T21:28:05.974Z,16.31
2023-05-14T21:30:32.470Z,16.25
2023-05-14T21:32:59.005Z,16.21
2023-05-14T21:35:26.002Z,16.22
2023-05-14T21:37:52.805Z,16.19
2023-05-14T21:40:19.497Z,16.18
2023-05-14T21:42:46.093Z,16.17
2023-05-14T21:45:12.741Z,16.17
2023-05-14T21:47:39.397Z,16.13
2023-05-14T21:50:06.921Z,16.13
2023-05-14T21:52:33.553Z,16.10
2023-05-14T21:55:00.034Z,16.09
2023-05-14T21:57:28.397Z,16.07
2023-05-14T21:59:55.444Z,16.04
2023-05-14T22:02:22.109Z,16.01
2023-05-14T22:04:48.652Z,15.99
2023-05-14T22:07:15.289Z,15.99
2023-05-14T22:09:41.777Z,15.94
2023-05-14T22:12:08.517Z,15.90
2023-05-14T22:14:35.090Z,15.88
2023-05-14T22:17:01.749Z,15.88
2023-05-14T22:19:28.492Z,15.84
2023-05-14T22:21:55.085Z,15.82
2023-05-14T22:24:21.648Z,15.76
2023-05-14T22:26:48.199Z,15.68
2023-05-14T22:29:14.725Z,15.62
2023-05-14T22:31:41.264Z,15.56
2023-05-14T22:34:07.848Z,15.51
2023-05-14T22:36:34.369Z,15.46
2023-05-14T22:39:00.985Z,15.45
2023-05-14T22:41:27.616Z,15.38
2023-05-14T22:43:54.158Z,15.34
2023-05-14T22:46:21.177Z,15.25
2023-05-14T22:48:49.222Z,15.21
2023-05-14T22:51:16.507Z,15.17
2023-05-14T22:53:43.307Z,15.13
2023-05-14T22:56:09.951Z,15.09
2023-05-14T22:58:36.422Z,15.04
2023-05-14T23:01:03.533Z,14.97
2023-05-14T23:03:30.189Z,14.95
2023-05-14T23:05:56.856Z,14.91
2023-05-14T23:08:23.349Z,14.87
2023-05-14T23:10:49.892Z,14.86
2023-05-14T23:13:16.555Z,14.82
2023-05-14T23:15:43.848Z,14.78
2023-05-14T23:18:10.552Z,14.72
2023-05-14T23:20:37.116Z,14.67
2023-05-14T23:23:03.667Z,14.66
2023-05-14T23:25:31.785Z,14.65
2023-05-14T23:27:58.352Z,14.63
2023-05-14T23:30:24.871Z,14.60
2023-05-14T23:32:51.600Z,14.53
2023-05-14T23:35:18.260Z,14.51
2023-05-14T23:37:47.387Z,14.49
2023-05-14T23:40:14.580Z,14.44
2023-05-14T23:42:41.258Z,14.42
2023-05-14T23:45:08.432Z,14.37
2023-05-14T23:47:35.373Z,14.32
2023-05-14T23:50:02.161Z,14.25
2023-05-14T23:52:28.750Z,14.17
2023-05-14T23:54:55.364Z,14.15
2023-05-14T23:57:21.959Z,14.07
2023-05-14T23:59:48.566Z,13.99
